sensor_id;sensor_type;location;lat;lon;timestamp;pressure;altitude;pressure_sealevel;temperature;humidity
22000;BME280;11164;48.818;2.322;2023-03-18T00:01:46;99928.41;;;14.30;46.02
22000;BME280;11164;48.818;2.322;2023-03-18T00:04:12;99932.19;;;14.17;46.18
22000;BME280;11164;48.818;2.322;2023-03-18T00:06:37;99937.88;;;14.16;46.31
22000;BME280;11164;48.818;2.322;2023-03-18T00:09:04;99928.31;;;14.13;46.35
22000;BME280;11164;48.818;2.322;2023-03-18T00:11:29;99942.69;;;14.14;46.27
22000;BME280;11164;48.818;2.322;2023-03-18T00:13:56;99935.69;;;14.30;45.81
22000;BME280;11164;48.818;2.322;2023-03-18T00:16:22;99930.03;;;14.31;45.81
22000;BME280;11164;48.818;2.322;2023-03-18T00:18:48;99934.88;;;14.29;45.90
22000;BME280;11164;48.818;2.322;2023-03-18T00:21:14;99940.66;;;14.33;45.81
22000;BME280;11164;48.818;2.322;2023-03-18T00:23:41;99943.50;;;14.26;45.96
22000;BME280;11164;48.818;2.322;2023-03-18T00:26:07;99934.09;;;14.17;45.99
22000;BME280;11164;48.818;2.322;2023-03-18T00:28:33;99949.53;;;14.16;45.94
22000;BME280;11164;48.818;2.322;2023-03-18T00:31:04;99952.50;;;14.03;46.75
22000;BME280;11164;48.818;2.322;2023-03-18T00:33:33;99945.81;;;13.94;46.57
22000;BME280;11164;48.818;2.322;2023-03-18T00:35:58;99961.47;;;13.92;46.49
22000;BME280;11164;48.818;2.322;2023-03-18T00:38:23;99960.72;;;13.84;46.49
22000;BME280;11164;48.818;2.322;2023-03-18T00:40:51;99954.47;;;13.84;46.57
22000;BME280;11164;48.818;2.322;2023-03-18T00:43:26;99960.97;;;13.83;46.53
22000;BME280;11164;48.818;2.322;2023-03-18T00:45:57;99962.84;;;13.82;46.62
22000;BME280;11164;48.818;2.322;2023-03-18T00:48:23;99949.56;;;13.93;46.23
22000;BME280;11164;48.818;2.322;2023-03-18T00:50:49;99944.09;;;13.81;46.39
22000;BME280;11164;48.818;2.322;2023-03-18T00:53:16;99933.28;;;13.69;46.51
22000;BME280;11164;48.818;2.322;2023-03-18T00:55:41;99937.41;;;13.72;46.45
22000;BME280;11164;48.818;2.322;2023-03-18T00:58:08;99933.50;;;13.56;46.71
22000;BME280;11164;48.818;2.322;2023-03-18T01:00:35;99937.16;;;13.49;47.00
22000;BME280;11164;48.818;2.322;2023-03-18T01:03:01;99940.81;;;13.55;46.63
22000;BME280;11164;48.818;2.322;2023-03-18T01:05:26;99936.00;;;13.57;46.62
22000;BME280;11164;48.818;2.322;2023-03-18T01:07:51;99940.94;;;13.60;46.36
22000;BME280;11164;48.818;2.322;2023-03-18T01:10:18;99943.66;;;13.60;46.38
22000;BME280;11164;48.818;2.322;2023-03-18T01:12:44;99944.00;;;13.52;46.43
22000;BME280;11164;48.818;2.322;2023-03-18T01:15:15;99951.41;;;13.45;46.73
22000;BME280;11164;48.818;2.322;2023-03-18T01:17:41;99947.06;;;13.56;46.29
22000;BME280;11164;48.818;2.322;2023-03-18T01:20:09;99947.06;;;13.67;46.11
22000;BME280;11164;48.818;2.322;2023-03-18T01:22:36;99942.56;;;13.61;46.08
22000;BME280;11164;48.818;2.322;2023-03-18T01:25:02;99940.81;;;13.67;45.97
22000;BME280;11164;48.818;2.322;2023-03-18T01:27:27;99943.41;;;13.74;45.79
22000;BME280;11164;48.818;2.322;2023-03-18T01:29:53;99934.81;;;13.77;45.91
22000;BME280;11164;48.818;2.322;2023-03-18T01:32:19;99930.09;;;13.72;45.81
22000;BME280;11164;48.818;2.322;2023-03-18T01:34:44;99917.63;;;13.71;45.91
22000;BME280;11164;48.818;2.322;2023-03-18T01:37:10;99924.56;;;13.79;45.67
22000;BME280;11164;48.818;2.322;2023-03-18T01:39:35;99922.19;;;13.82;45.48
22000;BME280;11164;48.818;2.322;2023-03-18T01:42:01;99925.50;;;13.84;45.81
22000;BME280;11164;48.818;2.322;2023-03-18T01:44:27;99915.97;;;13.82;45.70
22000;BME280;11164;48.818;2.322;2023-03-18T01:46:53;99914.31;;;13.81;45.65
22000;BME280;11164;48.818;2.322;2023-03-18T01:49:33;99913.03;;;13.83;46.03
22000;BME280;11164;48.818;2.322;2023-03-18T01:52:06;99912.31;;;13.76;45.66
22000;BME280;11164;48.818;2.322;2023-03-18T01:54:37;99918.91;;;13.68;45.96
22000;BME280;11164;48.818;2.322;2023-03-18T01:57:04;99927.88;;;13.69;45.71
22000;BME280;11164;48.818;2.322;2023-03-18T01:59:32;99921.25;;;13.65;45.83
22000;BME280;11164;48.818;2.322;2023-03-18T02:02:10;99917.03;;;13.57;46.20
22000;BME280;11164;48.818;2.322;2023-03-18T02:04:46;99919.28;;;13.60;46.36
22000;BME280;11164;48.818;2.322;2023-03-18T02:07:34;99918.66;;;13.70;46.44
22000;BME280;11164;48.818;2.322;2023-03-18T02:10:07;99921.38;;;13.70;45.75
22000;BME280;11164;48.818;2.322;2023-03-18T02:12:37;99913.59;;;13.62;46.01
22000;BME280;11164;48.818;2.322;2023-03-18T02:15:07;99908.28;;;13.67;45.91
22000;BME280;11164;48.818;2.322;2023-03-18T02:17:36;99925.28;;;13.74;45.60
22000;BME280;11164;48.818;2.322;2023-03-18T02:20:32;99921.50;;;13.75;46.21
22000;BME280;11164;48.818;2.322;2023-03-18T02:25:53;99927.25;;;13.67;46.74
22000;BME280;11164;48.818;2.322;2023-03-18T02:28:25;99915.97;;;13.70;45.81
22000;BME280;11164;48.818;2.322;2023-03-18T02:30:54;99905.94;;;13.82;45.35
22000;BME280;11164;48.818;2.322;2023-03-18T02:33:23;99895.81;;;13.90;45.02
22000;BME280;11164;48.818;2.322;2023-03-18T02:35:55;99899.84;;;13.87;45.49
22000;BME280;11164;48.818;2.322;2023-03-18T02:38:21;99897.72;;;13.89;45.28
22000;BME280;11164;48.818;2.322;2023-03-18T02:40:47;99900.50;;;13.82;45.42
22000;BME280;11164;48.818;2.322;2023-03-18T02:43:31;99924.59;;;13.91;45.60
22000;BME280;11164;48.818;2.322;2023-03-18T02:48:43;99935.44;;;13.91;45.58
22000;BME280;11164;48.818;2.322;2023-03-18T02:51:11;99937.78;;;13.87;45.58
22000;BME280;11164;48.818;2.322;2023-03-18T02:53:37;99933.19;;;13.87;45.39
22000;BME280;11164;48.818;2.322;2023-03-18T02:56:04;99932.38;;;13.99;45.37
22000;BME280;11164;48.818;2.322;2023-03-18T02:58:30;99929.53;;;13.94;45.46
22000;BME280;11164;48.818;2.322;2023-03-18T03:00:56;99927.84;;;13.81;45.72
22000;BME280;11164;48.818;2.322;2023-03-18T03:03:23;99939.88;;;13.73;45.65
22000;BME280;11164;48.818;2.322;2023-03-18T03:05:48;99931.16;;;13.59;45.92
22000;BME280;11164;48.818;2.322;2023-03-18T03:08:14;99934.09;;;13.46;46.39
22000;BME280;11164;48.818;2.322;2023-03-18T03:10:40;99923.50;;;13.56;46.06
22000;BME280;11164;48.818;2.322;2023-03-18T03:13:06;99938.00;;;13.50;45.92
22000;BME280;11164;48.818;2.322;2023-03-18T03:15:35;99933.72;;;13.42;46.33
22000;BME280;11164;48.818;2.322;2023-03-18T03:18:01;99937.03;;;13.44;46.09
22000;BME280;11164;48.818;2.322;2023-03-18T03:20:28;99936.34;;;13.61;45.95
22000;BME280;11164;48.818;2.322;2023-03-18T03:22:53;99937.97;;;13.62;45.75
22000;BME280;11164;48.818;2.322;2023-03-18T03:25:19;99942.94;;;13.65;45.69
22000;BME280;11164;48.818;2.322;2023-03-18T03:27:44;99936.00;;;13.57;45.78
22000;BME280;11164;48.818;2.322;2023-03-18T03:30:12;99935.16;;;13.68;45.65
22000;BME280;11164;48.818;2.322;2023-03-18T03:32:37;99934.94;;;13.70;45.43
22000;BME280;11164;48.818;2.322;2023-03-18T03:35:04;99931.75;;;13.73;45.47
22000;BME280;11164;48.818;2.322;2023-03-18T03:37:31;99936.69;;;13.76;45.27
22000;BME280;11164;48.818;2.322;2023-03-18T03:39:57;99944.00;;;13.76;45.39
22000;BME280;11164;48.818;2.322;2023-03-18T03:42:24;99950.84;;;13.78;45.38
22000;BME280;11164;48.818;2.322;2023-03-18T03:44:49;99953.31;;;13.80;45.41
22000;BME280;11164;48.818;2.322;2023-03-18T03:47:14;99955.09;;;13.86;45.14
22000;BME280;11164;48.818;2.322;2023-03-18T03:49:40;99945.19;;;13.80;45.23
22000;BME280;11164;48.818;2.322;2023-03-18T03:52:05;99952.59;;;13.73;45.50
22000;BME280;11164;48.818;2.322;2023-03-18T03:54:31;99949.44;;;13.64;45.72
22000;BME280;11164;48.818;2.322;2023-03-18T03:56:56;99955.44;;;13.66;45.30
22000;BME280;11164;48.818;2.322;2023-03-18T03:59:22;99947.31;;;13.66;45.44
22000;BME280;11164;48.818;2.322;2023-03-18T04:01:48;99954.72;;;13.59;45.56
22000;BME280;11164;48.818;2.322;2023-03-18T04:04:14;99951.66;;;13.55;45.60
22000;BME280;11164;48.818;2.322;2023-03-18T04:06:40;99951.03;;;13.53;45.79
22000;BME280;11164;48.818;2.322;2023-03-18T04:09:06;99950.72;;;13.61;45.62
22000;BME280;11164;48.818;2.322;2023-03-18T04:11:31;99949.91;;;13.73;45.19
22000;BME280;11164;48.818;2.322;2023-03-18T04:13:57;99948.81;;;13.74;45.21
22000;BME280;11164;48.818;2.322;2023-03-18T04:16:22;99955.19;;;13.67;45.54
22000;BME280;11164;48.818;2.322;2023-03-18T04:18:47;99960.50;;;13.74;45.19
22000;BME280;11164;48.818;2.322;2023-03-18T04:21:13;99951.78;;;13.84;45.03
22000;BME280;11164;48.818;2.322;2023-03-18T04:23:39;99950.88;;;13.90;44.75
22000;BME280;11164;48.818;2.322;2023-03-18T04:26:05;99956.63;;;13.94;44.76
22000;BME280;11164;48.818;2.322;2023-03-18T04:28:30;99965.47;;;13.89;45.00
22000;BME280;11164;48.818;2.322;2023-03-18T04:30:57;99959.19;;;13.77;45.31
22000;BME280;11164;48.818;2.322;2023-03-18T04:33:22;99957.31;;;13.77;45.25
22000;BME280;11164;48.818;2.322;2023-03-18T04:35:48;99946.59;;;13.82;44.98
22000;BME280;11164;48.818;2.322;2023-03-18T04:38:13;99958.38;;;14.00;44.69
22000;BME280;11164;48.818;2.322;2023-03-18T04:40:39;99957.81;;;13.98;44.67
22000;BME280;11164;48.818;2.322;2023-03-18T04:43:05;99972.19;;;13.86;45.05
22000;BME280;11164;48.818;2.322;2023-03-18T04:45:30;99967.31;;;13.77;45.32
22000;BME280;11164;48.818;2.322;2023-03-18T04:47:56;99971.97;;;13.88;44.99
22000;BME280;11164;48.818;2.322;2023-03-18T04:50:21;99973.09;;;13.80;45.21
22000;BME280;11164;48.818;2.322;2023-03-18T04:52:48;99977.56;;;13.63;45.65
22000;BME280;11164;48.818;2.322;2023-03-18T04:55:14;99980.84;;;13.65;45.45
22000;BME280;11164;48.818;2.322;2023-03-18T04:57:42;99970.03;;;13.65;45.66
22000;BME280;11164;48.818;2.322;2023-03-18T05:00:10;99982.72;;;13.53;45.54
22000;BME280;11164;48.818;2.322;2023-03-18T05:02:37;99971.78;;;13.59;45.48
22000;BME280;11164;48.818;2.322;2023-03-18T05:05:02;99957.19;;;13.60;45.50
22000;BME280;11164;48.818;2.322;2023-03-18T05:07:28;99957.44;;;13.59;45.63
22000;BME280;11164;48.818;2.322;2023-03-18T05:09:53;99953.63;;;13.48;45.76
22000;BME280;11164;48.818;2.322;2023-03-18T05:12:19;99945.88;;;13.63;45.50
22000;BME280;11164;48.818;2.322;2023-03-18T05:14:44;99947.06;;;13.56;45.70
22000;BME280;11164;48.818;2.322;2023-03-18T05:17:11;99935.41;;;13.55;45.42
22000;BME280;11164;48.818;2.322;2023-03-18T05:19:47;99938.13;;;13.55;45.85
22000;BME280;11164;48.818;2.322;2023-03-18T05:22:14;99942.22;;;13.58;45.49
22000;BME280;11164;48.818;2.322;2023-03-18T05:24:41;99951.53;;;13.62;45.48
22000;BME280;11164;48.818;2.322;2023-03-18T05:27:14;99951.75;;;13.48;45.76
22000;BME280;11164;48.818;2.322;2023-03-18T05:29:40;99950.44;;;13.39;45.83
22000;BME280;11164;48.818;2.322;2023-03-18T05:32:07;99946.31;;;13.37;45.81
22000;BME280;11164;48.818;2.322;2023-03-18T05:34:34;99938.75;;;13.27;45.71
22000;BME280;11164;48.818;2.322;2023-03-18T05:37:05;99943.81;;;13.23;46.19
22000;BME280;11164;48.818;2.322;2023-03-18T05:39:31;99943.59;;;13.25;45.92
22000;BME280;11164;48.818;2.322;2023-03-18T05:41:57;99956.09;;;13.26;45.88
22000;BME280;11164;48.818;2.322;2023-03-18T05:44:23;99949.78;;;13.02;46.46
22000;BME280;11164;48.818;2.322;2023-03-18T05:46:49;99948.47;;;13.04;46.40
22000;BME280;11164;48.818;2.322;2023-03-18T05:49:18;99944.28;;;13.08;46.24
22000;BME280;11164;48.818;2.322;2023-03-18T05:51:44;99946.50;;;13.11;46.10
22000;BME280;11164;48.818;2.322;2023-03-18T05:54:11;99945.34;;;13.19;45.78
22000;BME280;11164;48.818;2.322;2023-03-18T05:56:36;99949.47;;;13.10;46.16
22000;BME280;11164;48.818;2.322;2023-03-18T05:59:02;99948.97;;;13.01;46.59
22000;BME280;11164;48.818;2.322;2023-03-18T06:01:28;99952.59;;;12.95;46.68
22000;BME280;11164;48.818;2.322;2023-03-18T06:03:55;99948.13;;;13.01;46.42
22000;BME280;11164;48.818;2.322;2023-03-18T06:06:21;99951.53;;;12.96;46.46
22000;BME280;11164;48.818;2.322;2023-03-18T06:08:46;99943.56;;;13.01;46.54
22000;BME280;11164;48.818;2.322;2023-03-18T06:11:12;99951.19;;;13.04;46.55
22000;BME280;11164;48.818;2.322;2023-03-18T06:13:38;99949.06;;;13.06;46.64
22000;BME280;11164;48.818;2.322;2023-03-18T06:16:03;99952.53;;;13.13;46.52
22000;BME280;11164;48.818;2.322;2023-03-18T06:18:29;99945.09;;;13.09;46.52
22000;BME280;11164;48.818;2.322;2023-03-18T06:20:55;99944.13;;;13.03;46.73
22000;BME280;11164;48.818;2.322;2023-03-18T06:23:21;99940.84;;;13.01;46.54
22000;BME280;11164;48.818;2.322;2023-03-18T06:25:47;99943.28;;;13.03;46.54
22000;BME280;11164;48.818;2.322;2023-03-18T06:28:14;99947.31;;;13.00;46.87
22000;BME280;11164;48.818;2.322;2023-03-18T06:30:39;99956.28;;;13.12;46.54
22000;BME280;11164;48.818;2.322;2023-03-18T06:33:04;99955.22;;;13.13;46.50
22000;BME280;11164;48.818;2.322;2023-03-18T06:35:30;99952.16;;;13.10;46.56
22000;BME280;11164;48.818;2.322;2023-03-18T06:37:56;99957.31;;;13.11;46.63
22000;BME280;11164;48.818;2.322;2023-03-18T06:40:22;99969.25;;;12.92;46.97
22000;BME280;11164;48.818;2.322;2023-03-18T06:42:49;99967.28;;;12.99;46.96
22000;BME280;11164;48.818;2.322;2023-03-18T06:45:14;99972.47;;;13.01;47.00
22000;BME280;11164;48.818;2.322;2023-03-18T06:47:41;99976.66;;;12.85;47.37
22000;BME280;11164;48.818;2.322;2023-03-18T06:50:07;99979.78;;;12.82;47.48
22000;BME280;11164;48.818;2.322;2023-03-18T06:52:33;99972.00;;;12.73;47.64
22000;BME280;11164;48.818;2.322;2023-03-18T06:54:59;99977.38;;;12.92;47.12
22000;BME280;11164;48.818;2.322;2023-03-18T06:57:25;99976.13;;;13.06;47.05
22000;BME280;11164;48.818;2.322;2023-03-18T06:59:51;99972.41;;;13.19;46.79
22000;BME280;11164;48.818;2.322;2023-03-18T07:02:17;99979.47;;;13.20;46.85
22000;BME280;11164;48.818;2.322;2023-03-18T07:04:42;99977.47;;;13.16;47.23
22000;BME280;11164;48.818;2.322;2023-03-18T07:07:08;99978.28;;;13.16;47.38
22000;BME280;11164;48.818;2.322;2023-03-18T07:09:33;99978.81;;;13.37;46.87
22000;BME280;11164;48.818;2.322;2023-03-18T07:12:00;99975.28;;;13.36;47.01
22000;BME280;11164;48.818;2.322;2023-03-18T07:14:27;99984.94;;;13.44;46.82
22000;BME280;11164;48.818;2.322;2023-03-18T07:16:53;99988.16;;;13.53;46.73
22000;BME280;11164;48.818;2.322;2023-03-18T07:19:19;99979.00;;;13.65;46.49
22000;BME280;11164;48.818;2.322;2023-03-18T07:21:44;99992.41;;;13.72;46.48
22000;BME280;11164;48.818;2.322;2023-03-18T07:24:11;99980.69;;;13.90;46.33
22000;BME280;11164;48.818;2.322;2023-03-18T07:26:37;99978.63;;;13.74;46.51
22000;BME280;11164;48.818;2.322;2023-03-18T07:29:03;99987.84;;;13.73;46.78
22000;BME280;11164;48.818;2.322;2023-03-18T07:31:29;99984.28;;;13.84;46.72
22000;BME280;11164;48.818;2.322;2023-03-18T07:33:55;99987.47;;;13.57;47.23
22000;BME280;11164;48.818;2.322;2023-03-18T07:36:22;99989.56;;;13.67;46.82
22000;BME280;11164;48.818;2.322;2023-03-18T07:38:47;99985.81;;;13.68;46.90
22000;BME280;11164;48.818;2.322;2023-03-18T07:41:12;99985.72;;;13.75;46.81
22000;BME280;11164;48.818;2.322;2023-03-18T07:43:38;99989.59;;;13.79;46.76
22000;BME280;11164;48.818;2.322;2023-03-18T07:46:04;99994.59;;;13.94;46.35
22000;BME280;11164;48.818;2.322;2023-03-18T07:48:31;99977.59;;;14.10;45.93
22000;BME280;11164;48.818;2.322;2023-03-18T07:50:58;99989.28;;;14.11;46.18
22000;BME280;11164;48.818;2.322;2023-03-18T07:53:24;99994.69;;;14.11;46.04
22000;BME280;11164;48.818;2.322;2023-03-18T07:55:52;99986.88;;;14.26;46.09
22000;BME280;11164;48.818;2.322;2023-03-18T07:58:17;99989.94;;;14.30;45.96
22000;BME280;11164;48.818;2.322;2023-03-18T08:00:42;99983.09;;;14.39;46.06
22000;BME280;11164;48.818;2.322;2023-03-18T08:03:10;99991.44;;;14.49;46.00
22000;BME280;11164;48.818;2.322;2023-03-18T08:05:36;99988.34;;;14.57;45.90
22000;BME280;11164;48.818;2.322;2023-03-18T08:08:02;99982.03;;;14.80;45.49
22000;BME280;11164;48.818;2.322;2023-03-18T08:10:28;99987.78;;;14.96;45.37
22000;BME280;11164;48.818;2.322;2023-03-18T08:12:54;99986.03;;;14.90;45.50
22000;BME280;11164;48.818;2.322;2023-03-18T08:15:20;99997.13;;;14.76;45.92
22000;BME280;11164;48.818;2.322;2023-03-18T08:17:46;100004.91;;;14.96;45.56
22000;BME280;11164;48.818;2.322;2023-03-18T08:20:11;100003.56;;;14.99;45.85
22000;BME280;11164;48.818;2.322;2023-03-18T08:22:37;100003.44;;;15.06;45.69
22000;BME280;11164;48.818;2.322;2023-03-18T08:25:03;100012.69;;;14.52;46.74
22000;BME280;11164;48.818;2.322;2023-03-18T08:27:28;100012.41;;;14.66;46.62
22000;BME280;11164;48.818;2.322;2023-03-18T08:29:54;100002.84;;;14.75;46.59
22000;BME280;11164;48.818;2.322;2023-03-18T08:32:20;100010.91;;;14.98;45.98
22000;BME280;11164;48.818;2.322;2023-03-18T08:34:46;100011.44;;;14.72;46.34
22000;BME280;11164;48.818;2.322;2023-03-18T08:37:12;100010.97;;;14.75;46.20
22000;BME280;11164;48.818;2.322;2023-03-18T08:39:38;100010.38;;;14.73;46.33
22000;BME280;11164;48.818;2.322;2023-03-18T08:42:05;100004.22;;;14.89;45.88
22000;BME280;11164;48.818;2.322;2023-03-18T08:44:31;100007.00;;;15.06;45.62
22000;BME280;11164;48.818;2.322;2023-03-18T08:46:57;100007.34;;;15.27;45.56
22000;BME280;11164;48.818;2.322;2023-03-18T08:49:23;99992.63;;;15.73;44.91
22000;BME280;11164;48.818;2.322;2023-03-18T08:51:50;99993.22;;;15.92;44.49
22000;BME280;11164;48.818;2.322;2023-03-18T08:54:17;99991.91;;;16.12;44.48
22000;BME280;11164;48.818;2.322;2023-03-18T08:56:42;99994.88;;;15.93;44.88
22000;BME280;11164;48.818;2.322;2023-03-18T08:59:08;100006.13;;;15.68;45.50
22000;BME280;11164;48.818;2.322;2023-03-18T09:01:35;100001.56;;;15.69;45.53
22000;BME280;11164;48.818;2.322;2023-03-18T09:04:01;99997.16;;;15.68;45.65
22000;BME280;11164;48.818;2.322;2023-03-18T09:06:28;100005.53;;;15.95;45.28
22000;BME280;11164;48.818;2.322;2023-03-18T09:08:53;100007.88;;;16.08;44.68
22000;BME280;11164;48.818;2.322;2023-03-18T09:11:19;99991.81;;;16.07;44.97
22000;BME280;11164;48.818;2.322;2023-03-18T09:13:44;100008.38;;;16.05;45.09
22000;BME280;11164;48.818;2.322;2023-03-18T09:16:10;100000.69;;;16.19;44.84
22000;BME280;11164;48.818;2.322;2023-03-18T09:18:36;99999.97;;;16.46;44.65
22000;BME280;11164;48.818;2.322;2023-03-18T09:21:02;99997.88;;;16.53;44.30
22000;BME280;11164;48.818;2.322;2023-03-18T09:23:29;100006.81;;;16.48;44.74
22000;BME280;11164;48.818;2.322;2023-03-18T09:25:56;99991.59;;;16.53;44.44
22000;BME280;11164;48.818;2.322;2023-03-18T09:28:21;100012.56;;;16.74;44.36
22000;BME280;11164;48.818;2.322;2023-03-18T09:30:49;100006.09;;;16.58;44.60
22000;BME280;11164;48.818;2.322;2023-03-18T09:33:15;100001.22;;;16.38;44.79
22000;BME280;11164;48.818;2.322;2023-03-18T09:35:40;100001.00;;;16.62;44.59
22000;BME280;11164;48.818;2.322;2023-03-18T09:38:11;99993.88;;;17.05;43.75
22000;BME280;11164;48.818;2.322;2023-03-18T09:40:46;99992.16;;;17.26;43.72
22000;BME280;11164;48.818;2.322;2023-03-18T09:43:41;99992.28;;;17.69;41.11
22000;BME280;11164;48.818;2.322;2023-03-18T09:54:44;99991.44;;;18.06;40.36
22000;BME280;11164;48.818;2.322;2023-03-18T09:57:41;99992.00;;;18.08;38.88
22000;BME280;11164;48.818;2.322;2023-03-18T10:08:01;99988.97;;;18.47;42.02
22000;BME280;11164;48.818;2.322;2023-03-18T10:10:41;99997.66;;;17.96;39.95
22000;BME280;11164;48.818;2.322;2023-03-18T10:13:15;100003.47;;;18.10;42.85
22000;BME280;11164;48.818;2.322;2023-03-18T10:15:46;100005.56;;;17.97;42.78
22000;BME280;11164;48.818;2.322;2023-03-18T10:20:58;99997.41;;;18.40;39.01
22000;BME280;11164;48.818;2.322;2023-03-18T10:23:53;99999.25;;;18.29;40.34
22000;BME280;11164;48.818;2.322;2023-03-18T10:38:20;100011.97;;;17.76;41.78
22000;BME280;11164;48.818;2.322;2023-03-18T10:40:44;100019.28;;;17.43;42.07
22000;BME280;11164;48.818;2.322;2023-03-18T10:43:16;100011.31;;;18.01;40.88
22000;BME280;11164;48.818;2.322;2023-03-18T10:45:42;100009.47;;;18.54;40.88
22000;BME280;11164;48.818;2.322;2023-03-18T10:48:17;100000.00;;;18.72;38.61
22000;BME280;11164;48.818;2.322;2023-03-18T10:55:56;100006.69;;;19.07;39.55
22000;BME280;11164;48.818;2.322;2023-03-18T10:58:23;100001.22;;;19.33;39.58
22000;BME280;11164;48.818;2.322;2023-03-18T11:00:48;99997.28;;;18.78;40.18
22000;BME280;11164;48.818;2.322;2023-03-18T11:03:29;100007.50;;;19.08;35.28
22000;BME280;11164;48.818;2.322;2023-03-18T11:05:59;100005.47;;;18.83;40.07
22000;BME280;11164;48.818;2.322;2023-03-18T11:08:36;100010.16;;;18.92;36.96
22000;BME280;11164;48.818;2.322;2023-03-18T11:11:21;100004.97;;;18.96;36.28
22000;BME280;11164;48.818;2.322;2023-03-18T11:13:51;99993.06;;;19.23;39.18
22000;BME280;11164;48.818;2.322;2023-03-18T11:16:27;100011.03;;;19.08;35.09
22000;BME280;11164;48.818;2.322;2023-03-18T11:18:55;100011.25;;;18.86;39.25
22000;BME280;11164;48.818;2.322;2023-03-18T11:21:21;100017.72;;;18.70;39.61
22000;BME280;11164;48.818;2.322;2023-03-18T11:23:56;100006.56;;;18.77;39.33
22000;BME280;11164;48.818;2.322;2023-03-18T11:26:55;100016.47;;;17.97;38.15
22000;BME280;11164;48.818;2.322;2023-03-18T11:29:26;100004.97;;;17.90;36.81
22000;BME280;11164;48.818;2.322;2023-03-18T11:31:58;100013.41;;;18.26;36.31
22000;BME280;11164;48.818;2.322;2023-03-18T11:34:26;100001.38;;;18.22;38.94
22000;BME280;11164;48.818;2.322;2023-03-18T11:37:01;99996.53;;;19.03;37.28
22000;BME280;11164;48.818;2.322;2023-03-18T11:39:31;100004.16;;;18.90;37.75
22000;BME280;11164;48.818;2.322;2023-03-18T11:41:59;100000.84;;;18.83;38.04
22000;BME280;11164;48.818;2.322;2023-03-18T11:44:31;99994.28;;;18.84;36.26
22000;BME280;11164;48.818;2.322;2023-03-18T11:47:13;99998.59;;;18.12;35.99
22000;BME280;11164;48.818;2.322;2023-03-18T11:49:43;100016.38;;;18.25;38.54
22000;BME280;11164;48.818;2.322;2023-03-18T12:05:49;99993.59;;;19.71;35.90
22000;BME280;11164;48.818;2.322;2023-03-18T12:08:36;100002.06;;;19.39;35.21
22000;BME280;11164;48.818;2.322;2023-03-18T12:11:12;100016.25;;;19.20;35.73
22000;BME280;11164;48.818;2.322;2023-03-18T12:14:15;99996.75;;;18.86;33.71
22000;BME280;11164;48.818;2.322;2023-03-18T12:25:03;100000.66;;;19.10;35.59
22000;BME280;11164;48.818;2.322;2023-03-18T12:30:32;99997.75;;;18.59;33.53
22000;BME280;11164;48.818;2.322;2023-03-18T12:47:01;99978.97;;;18.78;35.67
22000;BME280;11164;48.818;2.322;2023-03-18T12:49:37;99977.22;;;18.51;36.70
22000;BME280;11164;48.818;2.322;2023-03-18T12:52:19;99986.00;;;18.53;34.77
22000;BME280;11164;48.818;2.322;2023-03-18T12:55:28;99990.03;;;18.41;34.17
22000;BME280;11164;48.818;2.322;2023-03-18T12:57:59;99978.31;;;18.45;36.54
22000;BME280;11164;48.818;2.322;2023-03-18T13:00:37;99977.22;;;18.46;35.59
22000;BME280;11164;48.818;2.322;2023-03-18T13:03:33;99975.81;;;18.33;34.37
22000;BME280;11164;48.818;2.322;2023-03-18T13:06:13;99989.56;;;18.11;34.93
22000;BME280;11164;48.818;2.322;2023-03-18T13:08:56;100007.69;;;16.98;38.02
22000;BME280;11164;48.818;2.322;2023-03-18T13:13:58;99992.53;;;16.19;40.44
22000;BME280;11164;48.818;2.322;2023-03-18T13:16:25;99989.78;;;16.80;39.28
22000;BME280;11164;48.818;2.322;2023-03-18T13:18:55;99988.66;;;17.31;39.08
22000;BME280;11164;48.818;2.322;2023-03-18T13:21:25;99990.56;;;17.57;38.66
22000;BME280;11164;48.818;2.322;2023-03-18T13:26:42;100010.88;;;17.44;39.21
22000;BME280;11164;48.818;2.322;2023-03-18T13:35:03;99984.72;;;18.24;38.05
22000;BME280;11164;48.818;2.322;2023-03-18T13:37:42;99985.88;;;18.28;38.03
22000;BME280;11164;48.818;2.322;2023-03-18T13:40:33;99990.69;;;18.15;37.48
22000;BME280;11164;48.818;2.322;2023-03-18T13:43:03;99965.44;;;17.88;38.22
22000;BME280;11164;48.818;2.322;2023-03-18T13:45:41;99986.25;;;18.04;37.72
22000;BME280;11164;48.818;2.322;2023-03-18T13:48:17;99980.03;;;18.72;37.53
22000;BME280;11164;48.818;2.322;2023-03-18T13:50:46;99973.31;;;19.00;37.25
22000;BME280;11164;48.818;2.322;2023-03-18T13:53:32;99961.00;;;19.03;35.17
22000;BME280;11164;48.818;2.322;2023-03-18T13:56:05;99967.09;;;19.82;36.19
22000;BME280;11164;48.818;2.322;2023-03-18T13:58:44;99963.28;;;19.37;33.91
22000;BME280;11164;48.818;2.322;2023-03-18T14:01:28;99963.41;;;20.33;33.89
22000;BME280;11164;48.818;2.322;2023-03-18T14:06:54;99957.09;;;20.37;31.69
22000;BME280;11164;48.818;2.322;2023-03-18T14:11:53;99966.91;;;20.43;35.65
22000;BME280;11164;48.818;2.322;2023-03-18T14:22:48;99954.25;;;21.08;34.31
22000;BME280;11164;48.818;2.322;2023-03-18T14:28:25;99948.50;;;21.49;30.62
22000;BME280;11164;48.818;2.322;2023-03-18T14:30:53;99957.25;;;21.80;30.05
22000;BME280;11164;48.818;2.322;2023-03-18T14:40:55;99932.06;;;21.44;32.67
22000;BME280;11164;48.818;2.322;2023-03-18T14:46:16;99950.38;;;19.78;30.65
22000;BME280;11164;48.818;2.322;2023-03-18T14:48:42;99941.88;;;19.75;33.64
22000;BME280;11164;48.818;2.322;2023-03-18T14:51:13;99940.56;;;19.57;32.08
22000;BME280;11164;48.818;2.322;2023-03-18T14:56:24;99928.94;;;20.81;29.80
22000;BME280;11164;48.818;2.322;2023-03-18T14:58:53;99927.94;;;21.07;31.80
22000;BME280;11164;48.818;2.322;2023-03-18T15:01:27;99934.75;;;20.75;31.55
22000;BME280;11164;48.818;2.322;2023-03-18T15:03:56;99925.88;;;20.93;31.85
22000;BME280;11164;48.818;2.322;2023-03-18T15:06:24;99927.78;;;21.32;31.60
22000;BME280;11164;48.818;2.322;2023-03-18T15:09:08;99910.47;;;22.20;28.81